Time;durP1;ratioP1;P1;durP2;ratioP2;P2;SDS_P1;SDS_P2;PMS_P1;PMS_P2;Temp;Humidity;BMP_temperature;BMP_pressure;BME280_temperature;BME280_humidity;BME280_pressure;Samples;Min_cycle;Max_cycle;Signal;HPM_P1;HPM_P2
2022/08/07 00:00:46;;;;;;;3.00;2.17;;;;;;;-143.85;100.00;70650.75;5091138;28;20084;-79
2022/08/07 00:03:11;;;;;;;2.33;2.10;;;;;;;-143.85;100.00;70650.75;5091205;28;20040;-80
2022/08/07 00:05:37;;;;;;;2.97;2.20;;;;;;;-143.85;100.00;70650.75;5091166;28;20134;-80
2022/08/07 00:08:04;;;;;;;2.38;1.90;;;;;;;-143.85;100.00;70650.75;5091120;28;20058;-79
2022/08/07 00:10:29;;;;;;;2.97;2.70;;;;;;;-143.85;100.00;70650.75;5091102;28;20035;-79
2022/08/07 00:12:56;;;;;;;2.85;2.17;;;;;;;-143.85;100.00;70650.75;5090961;28;20020;-80
2022/08/07 00:15:21;;;;;;;4.13;2.20;;;;;;;-143.85;100.00;70650.75;5092571;28;20028;-80
2022/08/07 00:17:47;;;;;;;2.72;2.13;;;;;;;-143.85;100.00;70650.75;5095187;28;20383;-80
2022/08/07 00:20:12;;;;;;;3.85;2.30;;;;;;;-143.85;100.00;70650.75;5095137;28;20097;-80
2022/08/07 00:22:38;;;;;;;4.22;2.33;;;;;;;-143.85;100.00;70650.75;5096607;28;20022;-80
2022/08/07 00:25:05;;;;;;;3.03;2.38;;;;;;;-143.85;100.00;70650.75;5096615;28;20026;-80
2022/08/07 00:27:31;;;;;;;4.10;2.17;;;;;;;-143.85;100.00;70650.75;5095114;28;20111;-80
2022/08/07 00:29:57;;;;;;;3.20;2.67;;;;;;;-143.85;100.00;70650.75;5094880;28;20461;-80
2022/08/07 00:32:22;;;;;;;4.07;2.75;;;;;;;-143.85;100.00;70650.75;5094845;28;20480;-80
2022/08/07 00:34:48;;;;;;;3.22;2.45;;;;;;;-143.85;100.00;70650.75;5094756;28;20449;-80
2022/08/07 00:37:17;;;;;;;2.70;2.50;;;;;;;-143.85;100.00;70650.75;5094746;28;20402;-80
2022/08/07 00:39:43;;;;;;;2.33;2.13;;;;;;;-143.85;100.00;70650.75;5094954;28;20532;-80
2022/08/07 00:42:08;;;;;;;3.55;2.30;;;;;;;-143.85;100.00;70650.75;5094691;28;20028;-80
2022/08/07 00:44:35;;;;;;;3.63;2.40;;;;;;;-143.85;100.00;70650.75;5094604;28;20394;-80
2022/08/07 00:47:02;;;;;;;6.32;1.95;;;;;;;-143.85;100.00;70650.75;5094323;28;20593;-80
2022/08/07 00:49:27;;;;;;;2.83;2.42;;;;;;;-143.85;100.00;70650.75;5094999;28;20557;-80
2022/08/07 00:51:53;;;;;;;3.25;2.17;;;;;;;-143.85;100.00;70650.75;5094467;28;20032;-80
2022/08/07 00:54:18;;;;;;;4.07;2.50;;;;;;;-143.85;100.00;70650.75;5094434;28;20016;-80
2022/08/07 00:56:44;;;;;;;3.10;2.47;;;;;;;-143.85;100.00;70650.75;5094485;28;20483;-80
2022/08/07 00:59:09;;;;;;;4.13;2.67;;;;;;;-143.85;100.00;70650.75;5094069;28;20395;-80
2022/08/07 01:01:35;;;;;;;3.17;2.50;;;;;;;-143.85;100.00;70650.75;5094096;28;20024;-80
2022/08/07 01:04:05;;;;;;;3.08;2.03;;;;;;;-143.85;100.00;70650.75;5095574;28;20056;-80
2022/08/07 01:06:31;;;;;;;2.60;2.13;;;;;;;-143.85;100.00;70650.75;5095672;28;20031;-80
2022/08/07 01:08:58;;;;;;;2.65;1.98;;;;;;;-143.85;100.00;70650.75;5095398;28;20020;-80
2022/08/07 01:11:24;;;;;;;3.45;2.33;;;;;;;-143.85;100.00;70650.75;5094079;28;20028;-79
2022/08/07 01:13:50;;;;;;;3.20;2.13;;;;;;;-143.85;100.00;70650.75;5094076;28;20027;-80
2022/08/07 01:16:16;;;;;;;3.58;2.00;;;;;;;-143.85;100.00;70650.75;5094348;28;20471;-80
2022/08/07 01:18:41;;;;;;;3.28;2.35;;;;;;;-143.85;100.00;70650.75;5093989;28;20038;-80
2022/08/07 01:21:18;;;;;;;2.42;2.22;;;;;;;-143.85;100.00;70650.75;5093984;28;20035;-80
2022/08/07 01:23:46;;;;;;;5.35;2.35;;;;;;;-143.85;100.00;70650.75;5093964;28;20093;-80
2022/08/07 01:26:13;;;;;;;2.83;1.80;;;;;;;-143.85;100.00;70650.75;5093860;28;20024;-80
2022/08/07 01:28:42;;;;;;;3.08;2.28;;;;;;;-143.85;100.00;70650.75;5093153;28;20073;-81
2022/08/07 01:31:08;;;;;;;2.67;2.15;;;;;;;-143.85;100.00;70650.75;5093760;28;20062;-80
2022/08/07 01:33:34;;;;;;;2.90;2.20;;;;;;;-143.85;100.00;70650.75;5095033;28;20051;-80
2022/08/07 01:36:01;;;;;;;3.05;2.47;;;;;;;-143.85;100.00;70650.75;5093616;28;20028;-80
2022/08/07 01:38:27;;;;;;;3.15;2.38;;;;;;;-143.85;100.00;70650.75;5093685;28;20043;-80
2022/08/07 01:40:58;;;;;;;2.20;1.65;;;;;;;-143.85;100.00;70650.75;5094900;28;20024;-80
2022/08/07 01:43:25;;;;;;;3.65;2.15;;;;;;;-143.85;100.00;70650.75;5093572;28;20055;-80
2022/08/07 01:45:52;;;;;;;4.70;2.00;;;;;;;-143.85;100.00;70650.75;5093522;28;20503;-80
2022/08/07 01:48:18;;;;;;;3.70;2.63;;;;;;;-143.85;100.00;70650.75;5094676;28;20534;-81
2022/08/07 01:50:48;;;;;;;4.38;2.78;;;;;;;-143.85;100.00;70650.75;5093392;28;20025;-80
2022/08/07 01:53:15;;;;;;;3.60;2.30;;;;;;;-143.85;100.00;70650.75;5094565;28;20016;-80
2022/08/07 01:55:52;;;;;;;3.28;2.40;;;;;;;-143.85;100.00;70650.75;5094367;28;20549;-80
2022/08/07 01:58:20;;;;;;;3.08;2.20;;;;;;;-143.85;100.00;70650.75;5093133;28;20059;-80
2022/08/07 02:00:56;;;;;;;5.07;2.20;;;;;;;-143.85;100.00;70650.75;5093523;28;20469;-80
2022/08/07 02:03:23;;;;;;;3.00;2.55;;;;;;;-143.85;100.00;70650.75;5093217;28;20043;-80
2022/08/07 02:05:54;;;;;;;2.67;2.10;;;;;;;-143.85;100.00;70650.75;5093023;28;20024;-80
2022/08/07 02:08:23;;;;;;;3.45;2.30;;;;;;;-143.85;100.00;70650.75;5093506;28;20028;-80
2022/08/07 02:10:52;;;;;;;2.47;2.20;;;;;;;-143.85;100.00;70650.75;5093042;28;20016;-80
2022/08/07 02:13:21;;;;;;;4.03;2.60;;;;;;;-143.85;100.00;70650.75;5092944;28;20111;-80
2022/08/07 02:15:49;;;;;;;3.92;2.22;;;;;;;-143.85;100.00;70650.75;5092940;28;20020;-80
2022/08/07 02:18:15;;;;;;;;;;;;;;;-143.85;100.00;70650.75;5093244;28;20050;-80
2022/08/07 02:20:43;;;;;;;2.38;2.05;;;;;;;-143.85;100.00;70650.75;5092853;28;19910;-80
2022/08/07 02:23:10;;;;;;;6.18;2.53;;;;;;;-143.85;100.00;70650.75;5093026;28;20024;-80
2022/08/07 02:25:39;;;;;;;3.47;2.38;;;;;;;-143.85;100.00;70650.75;5092727;28;20024;-80
2022/08/07 02:28:07;;;;;;;3.50;2.33;;;;;;;-143.85;100.00;70650.75;5092799;28;20468;-80
2022/08/07 02:30:35;;;;;;;3.90;2.60;;;;;;;-143.85;100.00;70650.75;5093847;28;20028;-80
2022/08/07 02:33:03;;;;;;;3.83;2.65;;;;;;;-143.85;100.00;70650.75;5092431;28;20050;-80
2022/08/07 02:35:31;;;;;;;3.33;2.15;;;;;;;-143.85;100.00;70650.75;5094070;28;20020;-80
2022/08/07 02:37:59;;;;;;;5.68;2.78;;;;;;;-143.85;100.00;70650.75;5092467;28;20012;-79
2022/08/07 02:40:25;;;;;;;4.00;2.58;;;;;;;-143.85;100.00;70650.75;5091491;28;20379;-80
2022/08/07 02:42:51;;;;;;;3.88;2.55;;;;;;;-143.85;100.00;70650.75;5093667;28;20024;-80
2022/08/07 02:45:19;;;;;;;4.68;2.85;;;;;;;-143.85;100.00;70650.75;5093548;28;20094;-80
2022/08/07 02:47:44;;;;;;;5.28;3.92;;;;;;;-143.85;100.00;70650.75;5092663;28;20519;-79
2022/08/07 02:50:10;;;;;;;3.70;2.95;;;;;;;-143.85;100.00;70650.75;5092232;28;20028;-80
2022/08/07 02:52:50;;;;;;;6.00;2.50;;;;;;;-143.85;100.00;70650.75;5092088;28;20122;-80
2022/08/07 02:55:22;;;;;;;4.82;3.17;;;;;;;-143.85;100.00;70650.75;5092276;28;20476;-80
2022/08/07 02:57:49;;;;;;;4.22;2.72;;;;;;;-143.85;100.00;70650.75;5091985;28;20028;-80
2022/08/07 03:00:16;;;;;;;12.38;3.38;;;;;;;-143.85;100.00;70650.75;5091869;28;20024;-80
2022/08/07 03:02:45;;;;;;;4.35;2.97;;;;;;;-143.85;100.00;70650.75;5092327;28;20089;-80
2022/08/07 03:05:12;;;;;;;3.83;2.35;;;;;;;-143.85;100.00;70650.75;5093232;28;20031;-80
2022/08/07 03:07:39;;;;;;;3.90;2.37;;;;;;;-143.85;100.00;70650.75;5092102;28;20031;-80
2022/08/07 03:10:06;;;;;;;4.13;2.63;;;;;;;-143.85;100.00;70650.75;5093173;28;20620;-80
2022/08/07 03:12:32;;;;;;;3.08;2.45;;;;;;;-143.85;100.00;70650.75;5092922;28;20031;-80
2022/08/07 03:14:59;;;;;;;4.25;2.90;;;;;;;-143.85;100.00;70650.75;5092054;28;20016;-80
2022/08/07 03:17:25;;;;;;;4.85;3.08;;;;;;;-143.85;100.00;70650.75;5091796;28;20024;-79
2022/08/07 03:19:52;;;;;;;4.30;2.63;;;;;;;-143.85;100.00;70650.75;5092141;28;20016;-80
2022/08/07 03:22:20;;;;;;;3.88;2.42;;;;;;;-143.85;100.00;70650.75;5091721;28;20157;-80
2022/08/07 03:24:46;;;;;;;3.72;2.75;;;;;;;-143.85;100.00;70650.75;5092878;28;20051;-81
2022/08/07 03:27:14;;;;;;;5.88;3.28;;;;;;;-143.85;100.00;70650.75;5091626;28;20020;-80
2022/08/07 03:29:44;;;;;;;6.73;3.13;;;;;;;-143.85;100.00;70650.75;5091774;28;20024;-80
2022/08/07 03:32:11;;;;;;;2.92;2.58;;;;;;;-143.85;100.00;70650.75;5091751;28;20024;-80
2022/08/07 03:34:38;;;;;;;4.73;2.60;;;;;;;-143.85;100.00;70650.75;5091569;28;20039;-80
2022/08/07 03:37:05;;;;;;;6.22;3.30;;;;;;;-143.85;100.00;70650.75;5091514;28;20020;-81
2022/08/07 03:39:34;;;;;;;6.25;2.83;;;;;;;-143.85;100.00;70650.75;5091369;28;20020;-81
2022/08/07 03:42:03;;;;;;;4.38;2.83;;;;;;;-143.85;100.00;70650.75;5091841;28;20016;-80
2022/08/07 03:44:29;;;;;;;5.07;2.75;;;;;;;-143.85;100.00;70650.75;5091337;28;20073;-81
2022/08/07 03:46:55;;;;;;;4.13;2.58;;;;;;;-143.85;100.00;70650.75;5092595;28;20063;-81
2022/08/07 03:49:20;;;;;;;3.47;2.50;;;;;;;-143.85;100.00;70650.75;5092876;28;20051;-81
2022/08/07 03:51:47;;;;;;;5.22;2.60;;;;;;;-143.85;100.00;70650.75;5090905;28;20035;-81
2022/08/07 03:54:13;;;;;;;3.50;2.58;;;;;;;-143.85;100.00;70650.75;5091121;28;20028;-80
2022/08/07 03:56:39;;;;;;;4.55;2.22;;;;;;;-143.85;100.00;70650.75;5091668;28;20080;-80
2022/08/07 03:59:06;;;;;;;3.53;2.30;;;;;;;-143.85;100.00;70650.75;5091106;28;20172;-80
2022/08/07 04:01:33;;;;;;;2.75;2.38;;;;;;;-143.85;100.00;70650.75;5092749;28;20028;-80
2022/08/07 04:03:59;;;;;;;4.38;2.60;;;;;;;-143.85;100.00;70650.75;5091327;28;20028;-80
2022/08/07 04:06:25;;;;;;;9.93;3.30;;;;;;;-143.85;100.00;70650.75;5091098;28;20032;-80
2022/08/07 04:08:51;;;;;;;8.38;2.83;;;;;;;-143.85;100.00;70650.75;5091176;28;20032;-79
2022/08/07 04:11:17;;;;;;;3.45;2.67;;;;;;;-143.85;100.00;70650.75;5092148;28;20028;-80
2022/08/07 04:13:44;;;;;;;6.80;2.38;;;;;;;-143.85;100.00;70650.75;5092143;28;20027;-80
2022/08/07 04:16:09;;;;;;;4.03;2.58;;;;;;;-143.85;100.00;70650.75;5091135;28;20074;-81
2022/08/07 04:18:35;;;;;;;3.88;2.67;;;;;;;-143.85;100.00;70650.75;5090992;28;20051;-81
2022/08/07 04:21:00;;;;;;;3.97;3.15;;;;;;;-143.85;100.00;70650.75;5092341;28;20099;-80
2022/08/07 04:23:27;;;;;;;4.65;3.20;;;;;;;-143.85;100.00;70650.75;5091413;28;20019;-81
2022/08/07 04:25:53;;;;;;;2.88;2.42;;;;;;;-143.85;100.00;70650.75;5091022;28;20024;-81
2022/08/07 04:28:19;;;;;;;2.78;2.40;;;;;;;-143.85;100.00;70650.75;5092094;28;20445;-81
2022/08/07 04:30:48;;;;;;;2.88;2.22;;;;;;;-143.85;100.00;70650.75;5090803;28;20020;-81
2022/08/07 04:33:16;;;;;;;2.10;1.85;;;;;;;-143.85;100.00;70650.75;5090866;28;20066;-80
2022/08/07 04:35:44;;;;;;;3.13;1.92;;;;;;;-143.85;100.00;70650.75;5092077;28;20034;-81
2022/08/07 04:38:10;;;;;;;2.88;2.15;;;;;;;-143.85;100.00;70650.75;5092351;28;20032;-81
2022/08/07 04:40:39;;;;;;;4.43;2.60;;;;;;;-143.85;100.00;70650.75;5090811;28;20387;-81
2022/08/07 04:43:05;;;;;;;3.85;2.72;;;;;;;-143.85;100.00;70650.75;5090830;28;20491;-81
2022/08/07 04:45:43;;;;;;;3.55;2.35;;;;;;;-143.85;100.00;70650.75;5091039;28;20037;-81
2022/08/07 04:48:33;;;;;;;4.97;2.42;;;;;;;-143.85;100.00;70650.75;5092619;28;20051;-81
2022/08/07 04:51:06;;;;;;;2.40;1.77;;;;;;;-143.85;100.00;70650.75;5091189;28;20093;-80
2022/08/07 04:53:48;;;;;;;3.65;2.17;;;;;;;-143.85;100.00;70650.75;5090848;28;20089;-80
2022/08/07 04:56:56;;;;;;;4.07;2.13;;;;;;;-143.85;100.00;70650.75;5092063;28;20031;-80
2022/08/07 04:59:39;;;;;;;17.83;2.28;;;;;;;-143.85;100.00;70650.75;5032617;28;20064;-81
2022/08/07 05:02:42;;;;;;;2.67;1.80;;;;;;;-143.85;100.00;70650.75;5088028;28;20472;-81
2022/08/07 05:05:11;;;;;;;2.92;2.33;;;;;;;-143.85;100.00;70650.75;5043940;28;20039;-80
2022/08/07 05:07:42;;;;;;;2.53;1.92;;;;;;;-143.85;100.00;70650.75;5094285;28;20091;-81
2022/08/07 05:10:13;;;;;;;3.10;2.30;;;;;;;-143.85;100.00;70650.75;5095620;28;20020;-81
2022/08/07 05:13:02;;;;;;;4.43;1.70;;;;;;;-143.85;100.00;70650.75;5093963;28;20054;-80
2022/08/07 05:15:34;;;;;;;2.35;1.92;;;;;;;-143.85;100.00;70650.75;5094573;28;20024;-80
2022/08/07 05:18:14;;;;;;;2.67;2.22;;;;;;;-143.85;100.00;70650.75;5094103;28;20039;-80
2022/08/07 05:20:44;;;;;;;1.58;1.48;;;;;;;-143.85;100.00;70650.75;5094294;28;20023;-80
2022/08/07 05:23:19;;;;;;;1.98;1.80;;;;;;;-143.85;100.00;70650.75;5093930;28;20377;-81
2022/08/07 05:25:45;;;;;;;4.57;2.55;;;;;;;-143.85;100.00;70650.75;5095136;28;20020;-80
2022/08/07 05:28:13;;;;;;;2.17;1.95;;;;;;;-143.85;100.00;70650.75;5093923;28;20098;-81
2022/08/07 05:30:39;;;;;;;;;;;;;;;-143.85;100.00;70650.75;5094246;28;20076;-80
2022/08/07 05:33:07;;;;;;;2.38;1.40;;;;;;;-143.85;100.00;70650.75;5095065;28;19908;-81
2022/08/07 05:35:34;;;;;;;1.88;1.60;;;;;;;-143.85;100.00;70650.75;5093735;28;20478;-81
2022/08/07 05:38:02;;;;;;;2.00;1.70;;;;;;;-143.85;100.00;70650.75;5094910;28;20047;-81
2022/08/07 05:40:28;;;;;;;2.35;1.80;;;;;;;-143.85;100.00;70650.75;5095694;28;20020;-80
2022/08/07 05:42:53;;;;;;;1.85;1.73;;;;;;;-143.85;100.00;70650.75;5093623;28;20022;-80
2022/08/07 05:45:21;;;;;;;3.22;1.90;;;;;;;-143.85;100.00;70650.75;5093556;28;20081;-81
2022/08/07 05:47:46;;;;;;;1.77;1.63;;;;;;;-143.85;100.00;70650.75;5093212;28;20109;-81
2022/08/07 05:50:13;;;;;;;1.95;1.75;;;;;;;-143.85;100.00;70650.75;5093252;28;20032;-81
2022/08/07 05:52:39;;;;;;;2.05;1.55;;;;;;;-143.85;100.00;70650.75;5093323;28;20115;-81
2022/08/07 05:55:05;;;;;;;3.22;1.65;;;;;;;-143.85;100.00;70650.75;5093284;28;20432;-81
2022/08/07 05:57:32;;;;;;;2.58;1.92;;;;;;;-143.85;100.00;70650.75;5093301;28;20024;-82
2022/08/07 05:59:59;;;;;;;2.83;1.85;;;;;;;-143.85;100.00;70650.75;5093137;28;20491;-82
2022/08/07 06:02:28;;;;;;;2.20;2.00;;;;;;;-143.85;100.00;70650.75;5094493;28;20020;-82
2022/08/07 06:04:58;;;;;;;2.13;1.50;;;;;;;-143.85;100.00;70650.75;5093123;28;20081;-81
2022/08/07 06:07:24;;;;;;;2.58;1.65;;;;;;;-143.85;100.00;70650.75;5094294;28;20020;-81
2022/08/07 06:09:49;;;;;;;7.28;1.52;;;;;;;-143.85;100.00;70650.75;5093064;28;20153;-80
2022/08/07 06:12:15;;;;;;;2.75;1.77;;;;;;;-143.85;100.00;70650.75;5093140;28;20484;-81
2022/08/07 06:14:42;;;;;;;4.22;1.95;;;;;;;-143.85;100.00;70650.75;5092680;28;20016;-81
2022/08/07 06:17:11;;;;;;;2.97;1.60;;;;;;;-143.85;100.00;70650.75;5092959;28;20016;-81
2022/08/07 06:19:38;;;;;;;3.00;1.70;;;;;;;-143.85;100.00;70650.75;5092996;28;20027;-81
2022/08/07 06:22:04;;;;;;;3.13;1.50;;;;;;;-143.85;100.00;70650.75;5092747;28;20134;-81
2022/08/07 06:24:29;;;;;;;2.40;1.80;;;;;;;-143.85;100.00;70650.75;5092651;28;20543;-81
2022/08/07 06:26:55;;;;;;;1.63;1.52;;;;;;;-143.85;100.00;70650.75;5094019;28;20024;-80
2022/08/07 06:29:26;;;;;;;2.10;1.90;;;;;;;-143.85;100.00;70650.75;5092625;28;20414;-81
2022/08/07 06:31:51;;;;;;;3.42;1.75;;;;;;;-143.85;100.00;70650.75;5092797;28;20085;-81
2022/08/07 06:34:16;;;;;;;2.13;1.48;;;;;;;-143.85;100.00;70650.75;5092499;28;20012;-81
2022/08/07 06:36:42;;;;;;;2.72;1.63;;;;;;;-143.85;100.00;70650.75;5092545;28;20097;-82
2022/08/07 06:39:07;;;;;;;3.83;1.40;;;;;;;-143.85;100.00;70650.75;5092498;28;20020;-82
2022/08/07 06:41:48;;;;;;;2.65;1.83;;;;;;;-143.85;100.00;70650.75;5092712;28;20081;-81
2022/08/07 06:44:16;;;;;;;2.75;1.73;;;;;;;-143.85;100.00;70650.75;5093744;28;20534;-82
2022/08/07 06:46:41;;;;;;;1.88;1.55;;;;;;;-143.85;100.00;70650.75;5092283;28;20035;-81
2022/08/07 06:49:07;;;;;;;2.67;1.65;;;;;;;-143.85;100.00;70650.75;5092311;28;20040;-81
2022/08/07 06:51:34;;;;;;;2.38;2.08;;;;;;;-143.85;100.00;70650.75;5092481;28;20024;-82
2022/08/07 06:54:02;;;;;;;2.67;1.55;;;;;;;-143.85;100.00;70650.75;5092340;28;20380;-81
2022/08/07 06:56:39;;;;;;;1.95;1.58;;;;;;;-143.85;100.00;70650.75;5092249;28;20043;-80
2022/08/07 06:59:20;;;;;;;2.08;1.85;;;;;;;-143.85;100.00;70650.75;5091915;28;20020;-79
2022/08/07 07:01:47;;;;;;;2.97;1.65;;;;;;;-143.85;100.00;70650.75;5093616;28;20380;-81
2022/08/07 07:04:13;;;;;;;;;;;;;;;-143.85;100.00;70650.75;5092326;28;20036;-81
2022/08/07 07:06:38;;;;;;;2.78;2.00;;;;;;;-143.85;100.00;70650.75;5092279;28;19904;-81
2022/08/07 07:09:24;;;;;;;2.38;1.60;;;;;;;-143.85;100.00;70650.75;5092021;28;20494;-81
2022/08/07 07:12:07;;;;;;;2.90;1.98;;;;;;;-143.85;100.00;70650.75;5093357;28;20035;-81
2022/08/07 07:15:05;;;;;;;1.95;1.60;;;;;;;-143.85;100.00;70650.75;5093232;28;20016;-81
2022/08/07 07:17:40;;;;;;;2.75;1.85;;;;;;;-143.85;100.00;70650.75;5090111;28;20515;-81
2022/08/07 07:20:18;;;;;;;2.25;1.45;;;;;;;-143.85;100.00;70650.75;5091856;28;20388;-81
2022/08/07 07:22:44;;;;;;;2.88;1.90;;;;;;;-143.85;100.00;70650.75;5092396;28;20089;-81
2022/08/07 07:25:11;;;;;;;2.85;1.77;;;;;;;-143.85;100.00;70650.75;5092363;28;20031;-80
2022/08/07 07:27:43;;;;;;;2.00;1.60;;;;;;;-143.85;100.00;70650.75;5091474;28;20030;-81
2022/08/07 07:30:11;;;;;;;5.72;2.17;;;;;;;-143.85;100.00;70650.75;5091794;28;20500;-81
2022/08/07 07:32:39;;;;;;;2.45;1.83;;;;;;;-143.85;100.00;70650.75;5092879;28;20020;-82
2022/08/07 07:35:08;;;;;;;1.73;1.58;;;;;;;-143.85;100.00;70650.75;5091473;28;20471;-82
2022/08/07 07:37:37;;;;;;;3.78;2.03;;;;;;;-143.85;100.00;70650.75;5092605;28;20024;-82
2022/08/07 07:40:06;;;;;;;2.80;1.92;;;;;;;-143.85;100.00;70650.75;5092751;28;20024;-82
2022/08/07 07:42:32;;;;;;;2.85;1.85;;;;;;;-143.85;100.00;70650.75;5091748;28;20391;-81
2022/08/07 07:45:01;;;;;;;2.15;1.85;;;;;;;-143.85;100.00;70650.75;5091466;28;20030;-81
2022/08/07 07:47:28;;;;;;;2.40;1.73;;;;;;;-143.85;100.00;70650.75;5091179;28;20373;-82
2022/08/07 07:49:55;;;;;;;2.28;1.75;;;;;;;-143.85;100.00;70650.75;5092487;28;20073;-81
2022/08/07 07:52:24;;;;;;;2.83;1.90;;;;;;;-143.85;100.00;70650.75;5091278;28;20028;-83
2022/08/07 07:54:50;;;;;;;2.33;1.80;;;;;;;-143.85;100.00;70650.75;5092474;28;20106;-81
2022/08/07 07:57:21;;;;;;;2.42;2.20;;;;;;;-143.85;100.00;70650.75;5091180;28;20028;-81
2022/08/07 07:59:50;;;;;;;2.22;1.50;;;;;;;-143.85;100.00;70650.75;5092432;28;20026;-80
2022/08/07 08:02:17;;;;;;;2.55;2.10;;;;;;;-143.85;100.00;70650.75;5091189;28;20055;-80
2022/08/07 08:04:43;;;;;;;3.78;2.35;;;;;;;-143.85;100.00;70650.75;5091184;28;20024;-81
2022/08/07 08:07:10;;;;;;;3.08;1.83;;;;;;;-143.85;100.00;70650.75;5091242;28;20460;-81
2022/08/07 08:09:37;;;;;;;1.88;1.50;;;;;;;-143.85;100.00;70650.75;5091219;28;20028;-82
2022/08/07 08:12:04;;;;;;;1.80;1.52;;;;;;;-143.85;100.00;70650.75;5091167;28;20042;-81
2022/08/07 08:14:31;;;;;;;3.13;1.80;;;;;;;-143.85;100.00;70650.75;5090941;28;20035;-81
2022/08/07 08:17:00;;;;;;;3.50;1.65;;;;;;;-143.85;100.00;70650.75;5091049;28;20250;-81
2022/08/07 08:19:28;;;;;;;2.33;1.80;;;;;;;-143.85;100.00;70650.75;5090918;28;20028;-82
2022/08/07 08:27:37;;;;;;;3.42;1.90;;;;;;;-143.85;100.00;70650.75;5092802;28;20077;-82
2022/08/07 08:30:09;;;;;;;2.13;1.80;;;;;;;-143.85;100.00;70650.75;5091042;28;20031;-82
2022/08/07 08:32:40;;;;;;;3.60;1.90;;;;;;;-143.85;100.00;70650.75;5091053;28;20031;-82
2022/08/07 08:35:09;;;;;;;2.33;1.40;;;;;;;-143.85;100.00;70650.75;5090852;28;20173;-81
2022/08/07 08:37:36;;;;;;;3.63;1.90;;;;;;;-143.85;100.00;70650.75;5091519;28;20024;-81
2022/08/07 08:40:13;;;;;;;2.63;1.70;;;;;;;-143.85;100.00;70650.75;5094891;28;20060;-82
2022/08/07 08:42:48;;;;;;;6.03;2.40;;;;;;;-143.85;100.00;70650.75;5096275;28;20350;-81
2022/08/07 08:45:52;;;;;;;4.30;2.25;;;;;;;-143.85;100.00;70650.75;5094854;28;20540;-82
2022/08/07 08:48:34;;;;;;;5.75;2.67;;;;;;;-143.85;100.00;70650.75;5096008;28;20044;-81
2022/08/07 08:51:06;;;;;;;2.58;1.90;;;;;;;-143.85;100.00;70650.75;5095922;28;20028;-80
2022/08/07 08:54:16;;;;;;;4.03;2.40;;;;;;;-143.85;100.00;70650.75;5094605;28;20407;-80
2022/08/07 08:56:45;;;;;;;5.60;2.55;;;;;;;-143.85;100.00;70650.75;5091147;28;20036;-79
2022/08/07 08:59:28;;;;;;;2.90;2.33;;;;;;;-143.85;100.00;70650.75;5094648;28;20028;-79
2022/08/07 09:02:09;;;;;;;6.63;3.15;;;;;;;-143.85;100.00;70650.75;5094622;28;20012;-79
2022/08/07 09:05:06;;;;;;;7.40;4.18;;;;;;;-143.85;100.00;70650.75;5094276;28;20024;-79
2022/08/07 09:07:52;;;;;;;6.70;2.60;;;;;;;-143.85;100.00;70650.75;5094138;28;20038;-79
2022/08/07 09:10:28;;;;;;;5.57;3.10;;;;;;;-143.85;100.00;70650.75;5094406;28;20035;-79
2022/08/07 09:13:32;;;;;;;5.20;3.63;;;;;;;-143.85;100.00;70650.75;5094037;28;20016;-79
2022/08/07 09:16:20;;;;;;;5.90;3.38;;;;;;;-143.85;100.00;70650.75;5094553;28;20051;-79
2022/08/07 09:19:20;;;;;;;7.15;3.55;;;;;;;-143.85;100.00;70650.75;5094098;28;20027;-79
2022/08/07 09:21:45;;;;;;;4.95;3.42;;;;;;;-143.85;100.00;70650.75;5087392;28;20445;-79
2022/08/07 09:24:20;;;;;;;8.13;3.97;;;;;;;-143.85;100.00;70650.75;5093962;28;20024;-79
2022/08/07 09:26:58;;;;;;;8.18;5.32;;;;;;;-143.85;100.00;70650.75;5094555;28;20024;-79
2022/08/07 09:29:48;;;;;;;4.63;3.67;;;;;;;-143.85;100.00;70650.75;5093885;28;20043;-80
2022/08/07 09:32:14;;;;;;;4.97;2.80;;;;;;;-143.85;100.00;70650.75;5095699;28;20024;-80
2022/08/07 09:34:49;;;;;;;4.72;3.00;;;;;;;-143.85;100.00;70650.75;5093980;28;20016;-79
2022/08/07 09:37:42;;;;;;;3.50;2.40;;;;;;;-143.85;100.00;70650.75;5093806;28;20387;-79
2022/08/07 09:40:22;;;;;;;3.97;2.58;;;;;;;-143.85;100.00;70650.75;5094939;28;20077;-79
2022/08/07 09:43:00;;;;;;;9.20;3.38;;;;;;;-143.85;100.00;70650.75;5094749;28;20020;-79
2022/08/07 09:45:44;;;;;;;;;;;;;;;-143.85;100.00;70650.75;5093981;28;20016;-79
2022/08/07 09:48:09;;;;;;;15.63;4.97;;;;;;;-143.85;100.00;70650.75;5092745;28;20003;-80
2022/08/07 09:51:05;;;;;;;5.60;2.75;;;;;;;-143.85;100.00;70650.75;5094906;28;20056;-79
2022/08/07 09:53:41;;;;;;;4.45;2.60;;;;;;;-143.85;100.00;70650.75;5093589;28;20077;-80
2022/08/07 09:56:22;;;;;;;6.07;3.38;;;;;;;-143.85;100.00;70650.75;5093390;28;20051;-80
2022/08/07 09:59:23;;;;;;;3.45;1.95;;;;;;;-143.85;100.00;70650.75;5092929;28;20031;-80
2022/08/07 10:01:55;;;;;;;3.30;2.22;;;;;;;-143.85;100.00;70650.75;5093280;28;20044;-80
2022/08/07 10:04:55;;;;;;;3.88;2.70;;;;;;;-143.85;100.00;70650.75;5093208;28;20372;-80
2022/08/07 10:07:40;;;;;;;2.55;2.00;;;;;;;-143.85;100.00;70650.75;5093566;28;20121;-80
2022/08/07 10:10:36;;;;;;;3.55;2.17;;;;;;;-143.85;100.00;70650.75;5094492;28;20084;-80
2022/08/07 10:13:24;;;;;;;3.03;2.17;;;;;;;-143.85;100.00;70650.75;5094282;28;20050;-81
2022/08/07 10:16:15;;;;;;;3.65;2.03;;;;;;;-143.85;100.00;70650.75;5093366;28;20031;-80
2022/08/07 10:19:09;;;;;;;3.22;2.50;;;;;;;-143.85;100.00;70650.75;5092914;28;20058;-80
2022/08/07 10:22:19;;;;;;;2.85;2.38;;;;;;;-143.85;100.00;70650.75;5092900;28;20089;-81
2022/08/07 10:25:09;;;;;;;3.03;1.92;;;;;;;-143.85;100.00;70650.75;5061177;28;20039;-81
2022/08/07 10:28:02;;;;;;;3.97;2.55;;;;;;;-143.85;100.00;70650.75;5092376;28;20149;-81
2022/08/07 10:31:13;;;;;;;2.80;2.30;;;;;;;-143.85;100.00;70650.75;5094208;28;20081;-81
2022/08/07 10:33:51;;;;;;;4.25;2.40;;;;;;;-143.85;100.00;70650.75;5083416;28;20127;-80
2022/08/07 10:36:45;;;;;;;;;;;;;;;-143.85;100.00;70650.75;5092910;28;20483;-80
2022/08/07 10:39:55;;;;;;;3.50;2.17;;;;;;;-143.85;100.00;70650.75;5005108;28;20292;-81
2022/08/07 10:42:33;;;;;;;4.40;2.00;;;;;;;-143.85;100.00;70650.75;5092428;28;20024;-81
2022/08/07 10:45:20;;;;;;;5.90;2.42;;;;;;;-143.85;100.00;70650.75;5092345;28;20020;-81
2022/08/07 10:47:48;;;;;;;4.50;2.42;;;;;;;-143.85;100.00;70650.75;5092156;28;20036;-81
2022/08/07 10:50:28;;;;;;;3.42;2.53;;;;;;;-143.85;100.00;70650.75;5092411;28;20032;-81
2022/08/07 10:53:10;;;;;;;3.00;2.33;;;;;;;-143.85;100.00;70650.75;5092101;28;20034;-81
2022/08/07 10:55:58;;;;;;;4.40;2.10;;;;;;;-143.85;100.00;70650.75;5092605;28;20043;-81
2022/08/07 10:58:50;;;;;;;3.17;2.30;;;;;;;-143.85;100.00;70650.75;5091900;28;20036;-81
2022/08/07 11:01:34;;;;;;;4.80;2.42;;;;;;;-143.85;100.00;70650.75;5091137;28;20043;-81
2022/08/07 11:04:10;;;;;;;2.85;2.20;;;;;;;-143.85;100.00;70650.75;5092087;28;20024;-81
2022/08/07 11:07:09;;;;;;;4.22;2.25;;;;;;;-143.85;100.00;70650.75;5093311;28;20526;-81
2022/08/07 11:09:44;;;;;;;3.20;2.20;;;;;;;-143.85;100.00;70650.75;5086424;28;20032;-81
2022/08/07 11:12:12;;;;;;;8.43;2.90;;;;;;;-143.85;100.00;70650.75;5092304;28;20031;-81
2022/08/07 11:14:47;;;;;;;4.45;1.92;;;;;;;-143.85;100.00;70650.75;5093072;28;20061;-81
2022/08/07 11:17:45;;;;;;;3.40;2.53;;;;;;;-143.85;100.00;70650.75;5092041;28;20120;-81
2022/08/07 11:20:19;;;;;;;4.47;2.42;;;;;;;-143.85;100.00;70650.75;5093103;28;20406;-82
2022/08/07 11:22:55;;;;;;;4.28;2.45;;;;;;;-143.85;100.00;70650.75;5091778;28;20020;-82
2022/08/07 11:25:32;;;;;;;4.10;2.00;;;;;;;-143.85;100.00;70650.75;5093141;28;20454;-82
2022/08/07 11:28:15;;;;;;;3.85;2.25;;;;;;;-143.85;100.00;70650.75;5091821;28;20111;-82
2022/08/07 11:31:08;;;;;;;4.03;2.72;;;;;;;-143.85;100.00;70650.75;5092144;28;20130;-82
2022/08/07 11:34:07;;;;;;;3.05;2.00;;;;;;;-143.85;100.00;70650.75;5093144;28;20021;-82
2022/08/07 11:37:10;;;;;;;3.85;2.70;;;;;;;-143.85;100.00;70650.75;5080366;28;20039;-82
2022/08/07 11:40:22;;;;;;;7.45;2.60;;;;;;;-143.85;100.00;70650.75;5069439;28;20125;-82